sensor_id;sensor_type;location;lat;lon;timestamp;pressure;altitude;pressure_sealevel;temperature;humidity
9740;BME280;4909;42.680;26.324;2022-10-31T00:01:23;98816.81;;;16.75;62.31
9740;BME280;4909;42.680;26.324;2022-10-31T00:03:50;98826.84;;;16.59;63.15
9740;BME280;4909;42.680;26.324;2022-10-31T00:06:17;98819.63;;;16.33;63.99
9740;BME280;4909;42.680;26.324;2022-10-31T00:08:45;98823.38;;;16.30;64.55
9740;BME280;4909;42.680;26.324;2022-10-31T00:11:12;98815.16;;;16.46;63.73
9740;BME280;4909;42.680;26.324;2022-10-31T00:13:39;98808.63;;;16.23;64.52
9740;BME280;4909;42.680;26.324;2022-10-31T00:16:13;98804.13;;;16.24;64.51
9740;BME280;4909;42.680;26.324;2022-10-31T00:18:40;98810.31;;;16.38;64.08
9740;BME280;4909;42.680;26.324;2022-10-31T00:21:07;98802.94;;;16.42;64.19
9740;BME280;4909;42.680;26.324;2022-10-31T00:23:34;98803.75;;;16.30;64.72
9740;BME280;4909;42.680;26.324;2022-10-31T00:26:03;98804.28;;;16.49;63.90
9740;BME280;4909;42.680;26.324;2022-10-31T00:28:30;98795.66;;;16.44;64.15
9740;BME280;4909;42.680;26.324;2022-10-31T00:31:01;98801.94;;;16.30;64.43
9740;BME280;4909;42.680;26.324;2022-10-31T00:33:28;98798.00;;;16.36;64.22
9740;BME280;4909;42.680;26.324;2022-10-31T00:35:55;98804.28;;;16.49;63.82
9740;BME280;4909;42.680;26.324;2022-10-31T00:38:22;98800.78;;;16.61;63.48
9740;BME280;4909;42.680;26.324;2022-10-31T00:40:49;98800.50;;;16.66;63.31
9740;BME280;4909;42.680;26.324;2022-10-31T00:43:17;98796.16;;;16.77;62.89
9740;BME280;4909;42.680;26.324;2022-10-31T00:45:44;98804.44;;;16.87;62.28
9740;BME280;4909;42.680;26.324;2022-10-31T00:48:11;98806.53;;;16.69;63.05
9740;BME280;4909;42.680;26.324;2022-10-31T00:50:38;98809.63;;;16.76;63.07
9740;BME280;4909;42.680;26.324;2022-10-31T00:53:05;98806.00;;;16.77;63.19
9740;BME280;4909;42.680;26.324;2022-10-31T00:55:32;98806.78;;;16.79;62.79
9740;BME280;4909;42.680;26.324;2022-10-31T00:57:59;98814.91;;;16.77;63.26
9740;BME280;4909;42.680;26.324;2022-10-31T01:00:27;98813.94;;;16.78;63.55
9740;BME280;4909;42.680;26.324;2022-10-31T01:02:54;98807.94;;;16.75;64.01
9740;BME280;4909;42.680;26.324;2022-10-31T01:05:20;98818.59;;;16.89;63.51
9740;BME280;4909;42.680;26.324;2022-10-31T01:07:47;98812.25;;;16.90;63.48
9740;BME280;4909;42.680;26.324;2022-10-31T01:10:14;98811.81;;;16.83;63.71
9740;BME280;4909;42.680;26.324;2022-10-31T01:12:42;98806.88;;;16.90;63.08
9740;BME280;4909;42.680;26.324;2022-10-31T01:15:11;98809.16;;;16.83;63.49
9740;BME280;4909;42.680;26.324;2022-10-31T01:17:40;98811.91;;;16.82;63.71
9740;BME280;4909;42.680;26.324;2022-10-31T01:20:08;98794.81;;;16.70;63.96
9740;BME280;4909;42.680;26.324;2022-10-31T01:22:36;98801.97;;;16.84;64.03
9740;BME280;4909;42.680;26.324;2022-10-31T01:25:03;98807.56;;;16.93;63.44
9740;BME280;4909;42.680;26.324;2022-10-31T01:27:30;98801.16;;;17.09;62.94
9740;BME280;4909;42.680;26.324;2022-10-31T01:29:57;98807.25;;;17.11;62.83
9740;BME280;4909;42.680;26.324;2022-10-31T01:32:24;98787.63;;;16.98;62.97
9740;BME280;4909;42.680;26.324;2022-10-31T01:34:52;98800.94;;;17.12;62.85
9740;BME280;4909;42.680;26.324;2022-10-31T01:37:19;98801.81;;;17.12;63.08
9740;BME280;4909;42.680;26.324;2022-10-31T01:39:47;98796.13;;;17.17;62.75
9740;BME280;4909;42.680;26.324;2022-10-31T01:42:18;98792.13;;;17.10;62.12
9740;BME280;4909;42.680;26.324;2022-10-31T01:44:54;98785.84;;;17.36;60.50
9740;BME280;4909;42.680;26.324;2022-10-31T01:47:30;98794.53;;;17.39;59.86
9740;BME280;4909;42.680;26.324;2022-10-31T01:50:01;98785.63;;;17.52;58.81
9740;BME280;4909;42.680;26.324;2022-10-31T01:52:31;98786.41;;;17.66;57.95
9740;BME280;4909;42.680;26.324;2022-10-31T01:55:01;98783.16;;;17.74;57.52
9740;BME280;4909;42.680;26.324;2022-10-31T01:57:31;98787.53;;;17.88;56.59
9740;BME280;4909;42.680;26.324;2022-10-31T02:00:00;98796.31;;;18.02;56.35
9740;BME280;4909;42.680;26.324;2022-10-31T02:02:30;98793.31;;;18.07;55.98
9740;BME280;4909;42.680;26.324;2022-10-31T02:05:01;98793.72;;;18.13;55.85
9740;BME280;4909;42.680;26.324;2022-10-31T02:07:33;98803.91;;;18.21;55.12
9740;BME280;4909;42.680;26.324;2022-10-31T02:10:03;98797.13;;;18.28;54.95
9740;BME280;4909;42.680;26.324;2022-10-31T02:12:31;98804.25;;;18.16;55.34
9740;BME280;4909;42.680;26.324;2022-10-31T02:14:59;98807.25;;;18.12;55.68
9740;BME280;4909;42.680;26.324;2022-10-31T02:17:26;98814.78;;;18.19;55.69
9740;BME280;4909;42.680;26.324;2022-10-31T02:20:00;98808.22;;;18.11;55.82
9740;BME280;4909;42.680;26.324;2022-10-31T02:22:35;98806.75;;;18.07;56.29
9740;BME280;4909;42.680;26.324;2022-10-31T02:25:18;98813.44;;;17.89;57.01
9740;BME280;4909;42.680;26.324;2022-10-31T02:28:10;98806.03;;;17.79;58.03
9740;BME280;4909;42.680;26.324;2022-10-31T02:30:58;98807.53;;;17.84;57.85
9740;BME280;4909;42.680;26.324;2022-10-31T02:33:31;98778.66;;;17.74;57.87
9740;BME280;4909;42.680;26.324;2022-10-31T02:36:04;98811.38;;;17.92;57.68
9740;BME280;4909;42.680;26.324;2022-10-31T02:38:46;98817.41;;;17.96;57.65
9740;BME280;4909;42.680;26.324;2022-10-31T02:41:19;98819.25;;;17.95;57.64
9740;BME280;4909;42.680;26.324;2022-10-31T02:43:56;98800.25;;;17.86;57.31
9740;BME280;4909;42.680;26.324;2022-10-31T02:46:33;98818.91;;;18.00;57.06
9740;BME280;4909;42.680;26.324;2022-10-31T02:49:13;98823.63;;;18.09;56.68
9740;BME280;4909;42.680;26.324;2022-10-31T02:51:43;98830.47;;;18.13;56.32
9740;BME280;4909;42.680;26.324;2022-10-31T02:54:18;98834.47;;;18.20;56.04
9740;BME280;4909;42.680;26.324;2022-10-31T02:56:46;98832.78;;;18.30;55.68
9740;BME280;4909;42.680;26.324;2022-10-31T02:59:13;98820.69;;;18.24;55.58
9740;BME280;4909;42.680;26.324;2022-10-31T03:01:53;98842.72;;;18.30;54.98
9740;BME280;4909;42.680;26.324;2022-10-31T03:04:31;98842.56;;;18.44;55.35
9740;BME280;4909;42.680;26.324;2022-10-31T03:07:08;98839.09;;;18.42;55.15
9740;BME280;4909;42.680;26.324;2022-10-31T03:09:44;98853.41;;;18.42;55.03
9740;BME280;4909;42.680;26.324;2022-10-31T03:12:17;98833.25;;;18.24;54.64
9740;BME280;4909;42.680;26.324;2022-10-31T03:14:53;98854.94;;;18.34;54.76
9740;BME280;4909;42.680;26.324;2022-10-31T03:17:27;98852.06;;;18.24;54.67
9740;BME280;4909;42.680;26.324;2022-10-31T03:20:00;98852.34;;;18.32;54.52
9740;BME280;4909;42.680;26.324;2022-10-31T03:22:31;98823.72;;;18.07;54.57
9740;BME280;4909;42.680;26.324;2022-10-31T03:25:02;98867.84;;;18.29;54.46
9740;BME280;4909;42.680;26.324;2022-10-31T03:27:31;98863.53;;;18.26;54.39
9740;BME280;4909;42.680;26.324;2022-10-31T03:30:02;98875.25;;;18.38;54.43
9740;BME280;4909;42.680;26.324;2022-10-31T03:32:34;98865.13;;;18.41;54.35
9740;BME280;4909;42.680;26.324;2022-10-31T03:35:04;98827.53;;;18.29;54.00
9740;BME280;4909;42.680;26.324;2022-10-31T03:37:34;98863.38;;;18.53;54.01
9740;BME280;4909;42.680;26.324;2022-10-31T03:40:04;98865.31;;;18.51;54.03
9740;BME280;4909;42.680;26.324;2022-10-31T03:42:34;98859.41;;;18.46;54.18
9740;BME280;4909;42.680;26.324;2022-10-31T03:45:05;98846.53;;;18.38;54.14
9740;BME280;4909;42.680;26.324;2022-10-31T03:47:37;98865.66;;;18.46;54.34
9740;BME280;4909;42.680;26.324;2022-10-31T03:50:06;98855.03;;;18.32;54.59
9740;BME280;4909;42.680;26.324;2022-10-31T03:52:37;98859.31;;;18.47;54.57
9740;BME280;4909;42.680;26.324;2022-10-31T03:55:10;98836.19;;;18.45;54.72
9740;BME280;4909;42.680;26.324;2022-10-31T03:57:43;98847.69;;;18.47;54.41
9740;BME280;4909;42.680;26.324;2022-10-31T04:00:13;98845.69;;;18.38;54.55
9740;BME280;4909;42.680;26.324;2022-10-31T04:02:44;98862.00;;;18.47;54.94
9740;BME280;4909;42.680;26.324;2022-10-31T04:05:13;98871.88;;;18.47;54.63
9740;BME280;4909;42.680;26.324;2022-10-31T04:07:44;98877.88;;;18.50;54.35
9740;BME280;4909;42.680;26.324;2022-10-31T04:10:15;98874.81;;;18.44;54.71
9740;BME280;4909;42.680;26.324;2022-10-31T04:12:43;98881.25;;;18.41;54.75
9740;BME280;4909;42.680;26.324;2022-10-31T04:15:12;98885.47;;;18.33;54.89
9740;BME280;4909;42.680;26.324;2022-10-31T04:17:43;98899.88;;;18.32;55.07
9740;BME280;4909;42.680;26.324;2022-10-31T04:20:15;98905.81;;;18.24;55.43
9740;BME280;4909;42.680;26.324;2022-10-31T04:22:42;98905.28;;;18.19;55.73
9740;BME280;4909;42.680;26.324;2022-10-31T04:25:08;98916.00;;;18.19;55.87
9740;BME280;4909;42.680;26.324;2022-10-31T04:27:35;98914.06;;;18.34;55.62
9740;BME280;4909;42.680;26.324;2022-10-31T04:30:02;98915.78;;;18.22;56.10
9740;BME280;4909;42.680;26.324;2022-10-31T04:32:29;98920.09;;;18.12;57.08
9740;BME280;4909;42.680;26.324;2022-10-31T04:34:57;98925.81;;;18.20;56.84
9740;BME280;4909;42.680;26.324;2022-10-31T04:37:24;98922.78;;;18.12;56.28
9740;BME280;4909;42.680;26.324;2022-10-31T04:39:51;98926.97;;;18.16;56.19
9740;BME280;4909;42.680;26.324;2022-10-31T04:42:17;98924.59;;;18.11;56.28
9740;BME280;4909;42.680;26.324;2022-10-31T04:44:44;98928.25;;;17.98;56.35
9740;BME280;4909;42.680;26.324;2022-10-31T04:47:11;98934.69;;;17.83;57.13
9740;BME280;4909;42.680;26.324;2022-10-31T04:49:38;98934.47;;;17.73;57.41
9740;BME280;4909;42.680;26.324;2022-10-31T04:52:06;98929.78;;;17.76;57.49
9740;BME280;4909;42.680;26.324;2022-10-31T04:54:33;98926.97;;;17.78;57.42
9740;BME280;4909;42.680;26.324;2022-10-31T04:57:00;98933.97;;;17.93;57.12
9740;BME280;4909;42.680;26.324;2022-10-31T04:59:27;98936.97;;;17.89;57.26
9740;BME280;4909;42.680;26.324;2022-10-31T05:01:53;98940.81;;;17.97;57.31
9740;BME280;4909;42.680;26.324;2022-10-31T05:04:20;98941.38;;;18.02;57.08
9740;BME280;4909;42.680;26.324;2022-10-31T05:06:47;98946.75;;;18.02;57.26
9740;BME280;4909;42.680;26.324;2022-10-31T05:09:15;98950.38;;;18.01;57.07
9740;BME280;4909;42.680;26.324;2022-10-31T05:11:42;98958.84;;;17.83;57.86
9740;BME280;4909;42.680;26.324;2022-10-31T05:14:08;98957.03;;;17.83;58.44
9740;BME280;4909;42.680;26.324;2022-10-31T05:16:35;98965.28;;;17.67;58.49
9740;BME280;4909;42.680;26.324;2022-10-31T05:19:02;98965.28;;;17.67;58.84
9740;BME280;4909;42.680;26.324;2022-10-31T05:21:29;98964.44;;;17.67;58.96
9740;BME280;4909;42.680;26.324;2022-10-31T05:23:55;98961.00;;;17.77;58.70
9740;BME280;4909;42.680;26.324;2022-10-31T05:26:24;98960.03;;;17.78;58.44
9740;BME280;4909;42.680;26.324;2022-10-31T05:28:51;98960.44;;;17.60;59.37
9740;BME280;4909;42.680;26.324;2022-10-31T05:31:17;98977.66;;;17.70;59.88
9740;BME280;4909;42.680;26.324;2022-10-31T05:33:44;98983.00;;;17.70;58.89
9740;BME280;4909;42.680;26.324;2022-10-31T05:36:11;98986.00;;;17.65;58.90
9740;BME280;4909;42.680;26.324;2022-10-31T05:38:38;98981.38;;;17.67;58.73
9740;BME280;4909;42.680;26.324;2022-10-31T05:41:04;98988.06;;;17.74;58.81
9740;BME280;4909;42.680;26.324;2022-10-31T05:43:33;98987.09;;;17.75;59.35
9740;BME280;4909;42.680;26.324;2022-10-31T05:45:59;98990.75;;;17.74;59.55
9740;BME280;4909;42.680;26.324;2022-10-31T05:48:26;98957.16;;;17.42;60.07
9740;BME280;4909;42.680;26.324;2022-10-31T05:50:53;98994.06;;;17.65;59.98
9740;BME280;4909;42.680;26.324;2022-10-31T05:53:20;98995.88;;;17.65;60.15
9740;BME280;4909;42.680;26.324;2022-10-31T05:55:46;99006.00;;;17.74;59.92
9740;BME280;4909;42.680;26.324;2022-10-31T05:58:13;98998.50;;;17.79;59.93
9740;BME280;4909;42.680;26.324;2022-10-31T06:00:41;99004.88;;;17.91;59.14
9740;BME280;4909;42.680;26.324;2022-10-31T06:03:09;99006.78;;;17.89;59.40
9740;BME280;4909;42.680;26.324;2022-10-31T06:05:36;99011.94;;;17.92;59.32
9740;BME280;4909;42.680;26.324;2022-10-31T06:08:03;99012.16;;;18.01;59.05
9740;BME280;4909;42.680;26.324;2022-10-31T06:10:29;99013.69;;;18.05;59.16
9740;BME280;4909;42.680;26.324;2022-10-31T06:12:56;99021.06;;;18.02;58.80
9740;BME280;4909;42.680;26.324;2022-10-31T06:15:23;99035.91;;;18.07;59.25
9740;BME280;4909;42.680;26.324;2022-10-31T06:17:59;99029.72;;;18.19;58.82
9740;BME280;4909;42.680;26.324;2022-10-31T06:20:26;99030.44;;;18.21;58.46
9740;BME280;4909;42.680;26.324;2022-10-31T06:22:53;99035.09;;;18.32;59.05
9740;BME280;4909;42.680;26.324;2022-10-31T06:25:20;99038.44;;;18.48;58.37
9740;BME280;4909;42.680;26.324;2022-10-31T06:27:46;99034.47;;;18.66;56.88
9740;BME280;4909;42.680;26.324;2022-10-31T06:30:14;99036.41;;;18.64;57.36
9740;BME280;4909;42.680;26.324;2022-10-31T06:32:40;99033.59;;;18.66;57.01
9740;BME280;4909;42.680;26.324;2022-10-31T06:35:09;99035.75;;;18.61;57.87
9740;BME280;4909;42.680;26.324;2022-10-31T06:37:36;99028.59;;;18.98;56.15
9740;BME280;4909;42.680;26.324;2022-10-31T06:40:04;99035.75;;;19.23;55.21
9740;BME280;4909;42.680;26.324;2022-10-31T06:42:31;99030.50;;;19.21;55.87
9740;BME280;4909;42.680;26.324;2022-10-31T06:44:58;99032.47;;;19.67;55.31
9740;BME280;4909;42.680;26.324;2022-10-31T06:47:24;99022.94;;;20.32;51.42
9740;BME280;4909;42.680;26.324;2022-10-31T06:49:51;99029.22;;;21.65;47.15
9740;BME280;4909;42.680;26.324;2022-10-31T06:52:19;99035.59;;;23.00;43.45
9740;BME280;4909;42.680;26.324;2022-10-31T06:54:46;99030.69;;;24.31;40.49
9740;BME280;4909;42.680;26.324;2022-10-31T06:57:13;99027.91;;;25.61;36.50
9740;BME280;4909;42.680;26.324;2022-10-31T06:59:39;99022.19;;;26.17;34.33
9740;BME280;4909;42.680;26.324;2022-10-31T07:02:08;99031.19;;;26.35;34.42
9740;BME280;4909;42.680;26.324;2022-10-31T07:04:35;99024.06;;;25.99;34.25
9740;BME280;4909;42.680;26.324;2022-10-31T07:07:02;99027.41;;;25.75;35.13
9740;BME280;4909;42.680;26.324;2022-10-31T07:09:30;99021.81;;;25.94;34.83
9740;BME280;4909;42.680;26.324;2022-10-31T07:11:57;99020.66;;;27.60;32.23
9740;BME280;4909;42.680;26.324;2022-10-31T07:14:24;99022.00;;;29.10;29.44
9740;BME280;4909;42.680;26.324;2022-10-31T07:16:51;99003.19;;;29.15;29.24
9740;BME280;4909;42.680;26.324;2022-10-31T07:19:17;99022.63;;;29.28;29.15
9740;BME280;4909;42.680;26.324;2022-10-31T07:21:44;99025.06;;;29.62;28.39
9740;BME280;4909;42.680;26.324;2022-10-31T07:24:11;99030.59;;;30.30;27.60
9740;BME280;4909;42.680;26.324;2022-10-31T07:26:39;99031.19;;;32.02;25.05
9740;BME280;4909;42.680;26.324;2022-10-31T07:29:07;99025.13;;;32.70;24.81
9740;BME280;4909;42.680;26.324;2022-10-31T07:31:34;99023.34;;;34.33;22.29
9740;BME280;4909;42.680;26.324;2022-10-31T07:34:01;99031.50;;;36.02;20.95
9740;BME280;4909;42.680;26.324;2022-10-31T07:36:28;99039.25;;;37.42;19.11
9740;BME280;4909;42.680;26.324;2022-10-31T07:38:54;99037.06;;;38.17;18.30
9740;BME280;4909;42.680;26.324;2022-10-31T07:41:23;99044.59;;;39.28;17.30
9740;BME280;4909;42.680;26.324;2022-10-31T07:43:51;99036.47;;;39.62;16.98
9740;BME280;4909;42.680;26.324;2022-10-31T07:46:18;99035.31;;;39.23;17.11
9740;BME280;4909;42.680;26.324;2022-10-31T07:48:45;99037.66;;;39.66;16.35
9740;BME280;4909;42.680;26.324;2022-10-31T07:51:11;99039.38;;;39.78;16.32
9740;BME280;4909;42.680;26.324;2022-10-31T07:53:38;99034.13;;;39.70;16.77
9740;BME280;4909;42.680;26.324;2022-10-31T07:56:05;99033.97;;;39.48;16.60
9740;BME280;4909;42.680;26.324;2022-10-31T07:58:32;99016.78;;;39.63;16.65
9740;BME280;4909;42.680;26.324;2022-10-31T08:01:00;99030.88;;;39.73;17.04
9740;BME280;4909;42.680;26.324;2022-10-31T08:03:27;99033.41;;;40.60;15.83
9740;BME280;4909;42.680;26.324;2022-10-31T08:05:54;99034.63;;;40.80;16.07
9740;BME280;4909;42.680;26.324;2022-10-31T08:08:20;99036.47;;;40.75;15.48
9740;BME280;4909;42.680;26.324;2022-10-31T08:10:47;99040.72;;;40.32;15.70
9740;BME280;4909;42.680;26.324;2022-10-31T08:13:14;99028.25;;;39.78;16.40
9740;BME280;4909;42.680;26.324;2022-10-31T08:15:41;99040.13;;;38.81;16.90
9740;BME280;4909;42.680;26.324;2022-10-31T08:18:12;99042.31;;;38.90;16.76
9740;BME280;4909;42.680;26.324;2022-10-31T08:20:39;99000.56;;;39.08;16.67
9740;BME280;4909;42.680;26.324;2022-10-31T08:23:06;99044.72;;;38.98;17.21
9740;BME280;4909;42.680;26.324;2022-10-31T08:25:34;99040.16;;;39.16;16.91
9740;BME280;4909;42.680;26.324;2022-10-31T08:28:01;99040.75;;;39.41;16.63
9740;BME280;4909;42.680;26.324;2022-10-31T08:30:30;99033.97;;;39.48;16.58
9740;BME280;4909;42.680;26.324;2022-10-31T08:32:59;99037.25;;;38.87;16.82
9740;BME280;4909;42.680;26.324;2022-10-31T08:35:28;99038.34;;;39.44;17.06
9740;BME280;4909;42.680;26.324;2022-10-31T08:37:55;99040.16;;;39.90;16.09
9740;BME280;4909;42.680;26.324;2022-10-31T08:40:23;99028.88;;;39.57;16.56
9740;BME280;4909;42.680;26.324;2022-10-31T08:42:56;99039.78;;;39.24;16.92
9740;BME280;4909;42.680;26.324;2022-10-31T08:45:23;99035.44;;;38.40;17.54
9740;BME280;4909;42.680;26.324;2022-10-31T08:47:50;99031.00;;;38.09;17.62
9740;BME280;4909;42.680;26.324;2022-10-31T08:50:17;99039.13;;;37.74;17.75
9740;BME280;4909;42.680;26.324;2022-10-31T08:52:45;99036.75;;;37.59;17.96
9740;BME280;4909;42.680;26.324;2022-10-31T08:55:12;99043.22;;;37.53;18.12
9740;BME280;4909;42.680;26.324;2022-10-31T08:57:39;99046.03;;;37.83;17.63
9740;BME280;4909;42.680;26.324;2022-10-31T09:00:07;99041.38;;;37.65;17.89
9740;BME280;4909;42.680;26.324;2022-10-31T09:02:34;99044.06;;;37.17;18.35
9740;BME280;4909;42.680;26.324;2022-10-31T09:05:02;99040.34;;;36.24;19.33
9740;BME280;4909;42.680;26.324;2022-10-31T09:07:29;99038.16;;;35.88;19.67
9740;BME280;4909;42.680;26.324;2022-10-31T09:09:57;99041.13;;;35.36;20.12
9740;BME280;4909;42.680;26.324;2022-10-31T09:12:24;99030.19;;;34.89;20.70
9740;BME280;4909;42.680;26.324;2022-10-31T09:14:51;99037.16;;;34.26;21.13
9740;BME280;4909;42.680;26.324;2022-10-31T09:17:17;99033.38;;;33.73;22.08
9740;BME280;4909;42.680;26.324;2022-10-31T09:19:44;99029.91;;;33.17;22.63
9740;BME280;4909;42.680;26.324;2022-10-31T09:22:11;99030.75;;;32.90;23.22
9740;BME280;4909;42.680;26.324;2022-10-31T09:24:37;99030.38;;;32.22;23.25
9740;BME280;4909;42.680;26.324;2022-10-31T09:27:06;99028.94;;;30.96;24.80
9740;BME280;4909;42.680;26.324;2022-10-31T09:29:34;99023.00;;;29.95;26.07
9740;BME280;4909;42.680;26.324;2022-10-31T09:32:01;99024.22;;;29.61;26.45
9740;BME280;4909;42.680;26.324;2022-10-31T09:34:28;99026.63;;;29.56;26.91
9740;BME280;4909;42.680;26.324;2022-10-31T09:36:54;99027.34;;;29.03;27.80
9740;BME280;4909;42.680;26.324;2022-10-31T09:39:21;99009.13;;;27.90;28.85
9740;BME280;4909;42.680;26.324;2022-10-31T09:41:58;99013.22;;;27.78;29.63
9740;BME280;4909;42.680;26.324;2022-10-31T09:44:34;99005.34;;;27.75;30.05
9740;BME280;4909;42.680;26.324;2022-10-31T09:47:08;99013.19;;;27.62;30.33
9740;BME280;4909;42.680;26.324;2022-10-31T09:49:53;99015.81;;;27.46;30.48
9740;BME280;4909;42.680;26.324;2022-10-31T09:52:26;99011.81;;;27.58;30.31
9740;BME280;4909;42.680;26.324;2022-10-31T09:54:58;99012.50;;;27.18;30.78
9740;BME280;4909;42.680;26.324;2022-10-31T09:57:29;99010.09;;;27.15;30.65
9740;BME280;4909;42.680;26.324;2022-10-31T10:00:01;99014.47;;;26.82;31.51
9740;BME280;4909;42.680;26.324;2022-10-31T10:02:34;99007.84;;;26.51;31.68
9740;BME280;4909;42.680;26.324;2022-10-31T10:05:06;99012.78;;;26.29;32.64
9740;BME280;4909;42.680;26.324;2022-10-31T10:07:43;98984.56;;;26.13;32.84
9740;BME280;4909;42.680;26.324;2022-10-31T10:10:17;99001.75;;;26.31;32.88
9740;BME280;4909;42.680;26.324;2022-10-31T10:12:57;99005.44;;;26.48;32.70
9740;BME280;4909;42.680;26.324;2022-10-31T10:15:41;99008.97;;;26.05;33.60
9740;BME280;4909;42.680;26.324;2022-10-31T10:18:22;99001.69;;;25.70;33.77
9740;BME280;4909;42.680;26.324;2022-10-31T10:21:01;98999.88;;;25.96;33.63
9740;BME280;4909;42.680;26.324;2022-10-31T10:23:39;98994.34;;;26.06;33.04
9740;BME280;4909;42.680;26.324;2022-10-31T10:26:17;98998.00;;;26.14;33.27
9740;BME280;4909;42.680;26.324;2022-10-31T10:28:47;98999.69;;;26.15;32.91
9740;BME280;4909;42.680;26.324;2022-10-31T10:31:21;98990.91;;;26.39;32.96
9740;BME280;4909;42.680;26.324;2022-10-31T10:34:01;98987.91;;;26.50;32.65
9740;BME280;4909;42.680;26.324;2022-10-31T10:36:33;98964.13;;;26.52;32.05
9740;BME280;4909;42.680;26.324;2022-10-31T10:39:05;98985.69;;;26.46;32.29
9740;BME280;4909;42.680;26.324;2022-10-31T10:41:41;98981.19;;;26.36;32.33
9740;BME280;4909;42.680;26.324;2022-10-31T10:44:10;98968.69;;;26.26;32.94
9740;BME280;4909;42.680;26.324;2022-10-31T10:46:43;98987.66;;;26.18;33.68
9740;BME280;4909;42.680;26.324;2022-10-31T10:49:31;98994.94;;;25.46;33.86
9740;BME280;4909;42.680;26.324;2022-10-31T10:52:02;98990.06;;;25.23;34.63
9740;BME280;4909;42.680;26.324;2022-10-31T10:54:47;98985.84;;;25.38;34.43
9740;BME280;4909;42.680;26.324;2022-10-31T10:57:26;98986.50;;;25.49;34.35
9740;BME280;4909;42.680;26.324;2022-10-31T10:59:54;98995.56;;;25.40;34.51
9740;BME280;4909;42.680;26.324;2022-10-31T11:02:24;98982.59;;;25.34;33.37
9740;BME280;4909;42.680;26.324;2022-10-31T11:04:52;98982.91;;;25.31;33.72
9740;BME280;4909;42.680;26.324;2022-10-31T11:07:20;98977.22;;;25.25;34.05
9740;BME280;4909;42.680;26.324;2022-10-31T11:09:48;98982.22;;;25.02;34.66
9740;BME280;4909;42.680;26.324;2022-10-31T11:12:20;98981.25;;;25.21;34.31
9740;BME280;4909;42.680;26.324;2022-10-31T11:14:50;98969.19;;;25.23;34.75
9740;BME280;4909;42.680;26.324;2022-10-31T11:17:25;98972.16;;;25.12;34.65
9740;BME280;4909;42.680;26.324;2022-10-31T11:20:04;98977.53;;;25.22;34.83
9740;BME280;4909;42.680;26.324;2022-10-31T11:22:32;98969.84;;;25.17;34.74
9740;BME280;4909;42.680;26.324;2022-10-31T11:24:59;98961.75;;;25.07;35.32
9740;BME280;4909;42.680;26.324;2022-10-31T11:27:26;98969.94;;;24.98;35.03
9740;BME280;4909;42.680;26.324;2022-10-31T11:30:04;98968.88;;;24.72;35.40
9740;BME280;4909;42.680;26.324;2022-10-31T11:32:32;98961.22;;;24.94;35.29
9740;BME280;4909;42.680;26.324;2022-10-31T11:35:02;98966.81;;;24.93;35.25
9740;BME280;4909;42.680;26.324;2022-10-31T11:37:40;98955.53;;;25.15;35.25
9740;BME280;4909;42.680;26.324;2022-10-31T11:40:16;98958.56;;;25.12;35.31
9740;BME280;4909;42.680;26.324;2022-10-31T11:42:44;98954.25;;;24.92;35.43
9740;BME280;4909;42.680;26.324;2022-10-31T11:45:15;98946.78;;;24.94;35.29
9740;BME280;4909;42.680;26.324;2022-10-31T11:47:46;98943.31;;;25.01;35.28
9740;BME280;4909;42.680;26.324;2022-10-31T11:50:20;98935.63;;;24.97;35.34
9740;BME280;4909;42.680;26.324;2022-10-31T11:52:47;98934.38;;;24.91;35.46
9740;BME280;4909;42.680;26.324;2022-10-31T11:55:26;98938.03;;;25.00;35.33
9740;BME280;4909;42.680;26.324;2022-10-31T11:57:56;98949.72;;;25.10;35.55
9740;BME280;4909;42.680;26.324;2022-10-31T12:00:25;98951.25;;;25.13;35.15
9740;BME280;4909;42.680;26.324;2022-10-31T12:03:12;98949.09;;;25.16;35.34
9740;BME280;4909;42.680;26.324;2022-10-31T12:05:44;98944.00;;;25.03;35.33
9740;BME280;4909;42.680;26.324;2022-10-31T12:08:13;98947.00;;;25.10;35.35
9740;BME280;4909;42.680;26.324;2022-10-31T12:10:51;98953.66;;;24.98;35.65
9740;BME280;4909;42.680;26.324;2022-10-31T12:13:32;98943.63;;;24.98;35.87
9740;BME280;4909;42.680;26.324;2022-10-31T12:16:04;98949.31;;;24.68;36.13
9740;BME280;4909;42.680;26.324;2022-10-31T12:18:47;98943.53;;;24.81;35.87
9740;BME280;4909;42.680;26.324;2022-10-31T12:21:27;98935.06;;;24.93;36.17
9740;BME280;4909;42.680;26.324;2022-10-31T12:24:08;98949.09;;;24.89;36.17
9740;BME280;4909;42.680;26.324;2022-10-31T12:26:42;98893.97;;;24.51;35.83
9740;BME280;4909;42.680;26.324;2022-10-31T12:29:26;98941.19;;;24.68;36.53
9740;BME280;4909;42.680;26.324;2022-10-31T12:32:09;98938.19;;;24.61;36.49
9740;BME280;4909;42.680;26.324;2022-10-31T12:34:50;98945.78;;;24.58;36.53
9740;BME280;4909;42.680;26.324;2022-10-31T12:37:30;98929.25;;;24.51;36.60
9740;BME280;4909;42.680;26.324;2022-10-31T12:40:12;98936.94;;;24.56;36.56
9740;BME280;4909;42.680;26.324;2022-10-31T12:42:52;98936.84;;;24.48;36.95
9740;BME280;4909;42.680;26.324;2022-10-31T12:45:42;98950.13;;;24.41;37.87
9740;BME280;4909;42.680;26.324;2022-10-31T12:48:30;98947.75;;;24.29;36.39
9740;BME280;4909;42.680;26.324;2022-10-31T12:51:12;98947.75;;;24.09;36.94
9740;BME280;4909;42.680;26.324;2022-10-31T12:53:56;98953.31;;;24.27;37.23
9740;BME280;4909;42.680;26.324;2022-10-31T12:56:38;98954.72;;;24.12;37.64
9740;BME280;4909;42.680;26.324;2022-10-31T12:59:17;98956.56;;;24.31;37.88
9740;BME280;4909;42.680;26.324;2022-10-31T13:01:51;98954.47;;;24.15;36.81
9740;BME280;4909;42.680;26.324;2022-10-31T13:04:40;98960.34;;;24.01;37.62
9740;BME280;4909;42.680;26.324;2022-10-31T13:07:13;98956.03;;;24.27;38.00
9740;BME280;4909;42.680;26.324;2022-10-31T13:09:45;98956.44;;;24.32;38.89
9740;BME280;4909;42.680;26.324;2022-10-31T13:12:17;98954.06;;;24.00;38.16
9740;BME280;4909;42.680;26.324;2022-10-31T13:14:48;98936.81;;;23.72;38.27
9740;BME280;4909;42.680;26.324;2022-10-31T13:17:22;98950.75;;;23.97;38.73
9740;BME280;4909;42.680;26.324;2022-10-31T13:19:54;98957.91;;;23.78;38.58
9740;BME280;4909;42.680;26.324;2022-10-31T13:22:30;98952.94;;;23.64;39.12
9740;BME280;4909;42.680;26.324;2022-10-31T13:25:04;98952.50;;;23.59;39.10
9740;BME280;4909;42.680;26.324;2022-10-31T13:27:43;98956.63;;;23.54;39.02